createdAt,value
2018-05-01T00:00:01.352Z,47.00
2018-05-01T00:02:29.701Z,47.10
2018-05-01T00:04:57.244Z,47.10
2018-05-01T00:07:24.788Z,45.80
2018-05-01T00:09:53.129Z,46.90
2018-05-01T00:12:20.672Z,46.90
2018-05-01T00:14:48.252Z,45.20
2018-05-01T00:17:15.801Z,45.30
2018-05-01T00:19:43.374Z,45.80
2018-05-01T00:22:10.916Z,46.10
2018-05-01T00:24:38.736Z,46.10
2018-05-01T00:27:06.276Z,46.70
2018-05-01T00:29:33.842Z,47.40
2018-05-01T00:32:01.388Z,46.70
2018-05-01T00:34:28.952Z,47.60
2018-05-01T00:36:56.505Z,47.30
2018-05-01T00:39:24.072Z,49.70
2018-05-01T00:41:52.388Z,47.50
2018-05-01T00:44:19.960Z,47.40
2018-05-01T00:46:47.500Z,48.10
2018-05-01T00:49:15.076Z,46.90
2018-05-01T00:51:42.654Z,46.60
2018-05-01T00:54:10.200Z,47.40
2018-05-01T00:56:37.745Z,46.90
2018-05-01T00:59:05.580Z,47.40
2018-05-01T01:01:33.125Z,47.90
2018-05-01T01:04:01.493Z,47.40
2018-05-01T01:06:29.031Z,47.30
2018-05-01T01:08:56.602Z,47.00
2018-05-01T01:11:24.227Z,47.90
2018-05-01T01:13:52.446Z,46.50
2018-05-01T01:16:20.769Z,47.10
2018-05-01T01:18:49.274Z,47.00
2018-05-01T01:21:16.816Z,48.10
2018-05-01T01:23:44.389Z,47.00
2018-05-01T01:26:11.934Z,48.60
2018-05-01T01:28:39.498Z,48.60
2018-05-01T01:31:07.036Z,46.90
2018-05-01T01:33:34.602Z,46.60
2018-05-01T01:36:01.662Z,48.00
2018-05-01T01:38:28.740Z,49.10
2018-05-01T01:40:56.024Z,47.40
2018-05-01T01:43:23.076Z,47.60
2018-05-01T01:45:50.916Z,46.70
2018-05-01T01:48:17.977Z,46.60
2018-05-01T01:50:45.066Z,47.80
2018-05-01T01:53:12.121Z,47.70
2018-05-01T01:55:39.205Z,46.80
2018-05-01T01:58:06.260Z,47.20
2018-05-01T02:00:34.108Z,46.00
2018-05-01T02:03:01.160Z,46.00
2018-05-01T02:05:28.261Z,47.50
2018-05-01T02:07:55.309Z,46.00
2018-05-01T02:10:22.384Z,46.50
2018-05-01T02:12:49.435Z,46.90
2018-05-01T02:15:16.514Z,46.40
2018-05-01T02:17:44.328Z,47.10
2018-05-01T02:20:11.400Z,47.00
2018-05-01T02:22:38.452Z,46.10
2018-05-01T02:25:05.529Z,47.20
2018-05-01T02:27:32.780Z,45.70
2018-05-01T02:29:59.860Z,46.70
2018-05-01T02:32:26.908Z,45.90
2018-05-01T02:34:53.985Z,47.00
2018-05-01T02:37:21.041Z,46.90
2018-05-01T02:39:48.116Z,47.30
2018-05-01T02:42:15.939Z,47.50
2018-05-01T02:44:43.015Z,47.50
2018-05-01T02:47:10.832Z,45.60
2018-05-01T02:49:37.909Z,45.60
2018-05-01T02:52:04.964Z,45.30
2018-05-01T02:54:32.041Z,46.70
2018-05-01T02:56:59.092Z,47.10
2018-05-01T02:59:26.168Z,47.40
2018-05-01T03:01:53.220Z,48.40
2018-05-01T03:04:20.297Z,47.00
2018-05-01T03:06:47.349Z,47.80
2018-05-01T03:09:14.409Z,47.10
2018-05-01T03:11:41.490Z,47.40
2018-05-01T03:14:08.545Z,46.10
2018-05-01T03:16:35.620Z,47.20
2018-05-01T03:19:02.684Z,47.30
2018-05-01T03:21:29.761Z,47.40
2018-05-01T03:23:56.819Z,48.90
2018-05-01T03:26:23.905Z,45.60
2018-05-01T03:28:50.998Z,47.30
2018-05-01T03:31:18.073Z,46.80
2018-05-01T03:33:45.128Z,46.40
2018-05-01T03:36:12.205Z,47.10
2018-05-01T03:38:39.261Z,47.10
2018-05-01T03:41:06.335Z,47.20
2018-05-01T03:43:33.388Z,47.00
2018-05-01T03:46:00.465Z,47.40
2018-05-01T03:48:27.520Z,46.70
2018-05-01T03:50:54.601Z,46.70
2018-05-01T03:53:22.419Z,47.10
2018-05-01T03:55:49.544Z,47.10
2018-05-01T03:58:17.337Z,46.70
2018-05-01T04:00:44.412Z,46.70
2018-05-01T04:03:11.464Z,47.40
2018-05-01T04:05:38.541Z,46.70
2018-05-01T04:08:05.714Z,46.10
2018-05-01T04:10:32.792Z,45.70
2018-05-01T04:12:59.882Z,45.80
2018-05-01T04:15:26.957Z,46.10
2018-05-01T04:17:54.009Z,46.40
2018-05-01T04:20:21.093Z,45.70
2018-05-01T04:22:48.152Z,45.70
2018-05-01T04:25:16.048Z,46.40
2018-05-01T04:27:43.060Z,46.30
2018-05-01T04:30:10.136Z,46.00
2018-05-01T04:32:37.184Z,46.10
2018-05-01T04:35:04.232Z,45.70
2018-05-01T04:37:31.308Z,46.40
2018-05-01T04:39:58.365Z,45.30
2018-05-01T04:42:25.439Z,46.10
2018-05-01T04:44:52.489Z,48.00
2018-05-01T04:47:20.326Z,47.20
2018-05-01T04:49:47.376Z,46.10
2018-05-01T04:52:14.453Z,45.70
2018-05-01T04:54:41.508Z,45.00
2018-05-01T04:57:09.352Z,45.30
2018-05-01T04:59:36.400Z,45.10
2018-05-01T05:02:03.480Z,46.70
2018-05-01T05:04:30.528Z,47.60
2018-05-01T05:06:57.601Z,48.50
2018-05-01T05:09:24.682Z,47.10
2018-05-01T05:11:51.753Z,45.70
2018-05-01T05:14:19.567Z,48.00
2018-05-01T05:16:46.639Z,48.00
2018-05-01T05:19:13.688Z,47.10
2018-05-01T05:21:40.760Z,48.20
2018-05-01T05:24:08.573Z,47.30
2018-05-01T05:26:35.652Z,47.30
2018-05-01T05:29:02.715Z,48.00
2018-05-01T05:31:30.552Z,47.60
2018-05-01T05:33:57.609Z,46.70
2018-05-01T05:36:24.754Z,47.40
2018-05-01T05:38:51.749Z,47.10
2018-05-01T05:41:18.826Z,47.30
2018-05-01T05:43:45.881Z,47.10
2018-05-01T05:46:12.948Z,47.70
2018-05-01T05:48:40.035Z,48.80
2018-05-01T05:51:07.112Z,47.40
2018-05-01T05:53:34.161Z,46.70
2018-05-01T05:56:01.237Z,48.50
2018-05-01T05:58:28.310Z,47.20
2018-05-01T06:00:56.153Z,48.40
2018-05-01T06:03:23.201Z,48.30
2018-05-01T06:05:50.280Z,47.50
2018-05-01T06:08:17.329Z,48.00
2018-05-01T06:10:44.393Z,48.70
2018-05-01T06:13:11.488Z,47.90
2018-05-01T06:15:38.539Z,47.90
2018-05-01T06:18:05.737Z,46.80
2018-05-01T06:20:34.432Z,47.70
2018-05-01T06:23:01.504Z,47.30
2018-05-01T06:25:28.557Z,46.70
2018-05-01T06:27:55.636Z,45.40
2018-05-01T06:30:23.456Z,46.10
2018-05-01T06:32:51.229Z,46.10
2018-05-01T06:35:18.284Z,45.60
2018-05-01T06:37:45.361Z,45.70
2018-05-01T06:40:12.416Z,46.10
2018-05-01T06:42:39.490Z,46.50
2018-05-01T06:45:06.574Z,46.10
2018-05-01T06:47:33.648Z,46.20
2018-05-01T06:50:00.696Z,47.00
2018-05-01T06:52:28.537Z,46.40
2018-05-01T06:54:55.605Z,46.30
2018-05-01T06:57:23.446Z,46.60
2018-05-01T06:59:50.498Z,46.60
2018-05-01T07:02:17.644Z,45.80
2018-05-01T07:04:44.652Z,45.80
2018-05-01T07:07:11.733Z,45.80
2018-05-01T07:09:38.785Z,46.80
2018-05-01T07:12:05.860Z,45.60
2018-05-01T07:14:32.911Z,46.20
2018-05-01T07:16:59.985Z,45.20
2018-05-01T07:19:27.041Z,45.80
2018-05-01T07:21:54.121Z,44.80
2018-05-01T07:24:21.168Z,45.00
2018-05-01T07:26:48.245Z,45.80
2018-05-01T07:29:15.296Z,44.70
2018-05-01T07:31:42.378Z,45.30
2018-05-01T07:34:09.428Z,45.00
2018-05-01T07:36:36.483Z,45.00
2018-05-01T07:39:03.565Z,45.00
2018-05-01T07:41:31.448Z,44.40
2018-05-01T07:43:58.488Z,44.40
2018-05-01T07:46:26.385Z,44.40
2018-05-01T07:48:53.409Z,44.30
2018-05-01T07:51:20.461Z,44.50
2018-05-01T07:53:47.540Z,44.20
2018-05-01T07:56:14.592Z,44.60
2018-05-01T07:58:41.665Z,44.60
2018-05-01T08:01:08.720Z,45.80
2018-05-01T08:03:36.565Z,45.10
2018-05-01T08:06:03.618Z,45.80
2018-05-01T08:08:30.701Z,45.20
2018-05-01T08:10:57.753Z,44.90
2018-05-01T08:13:24.829Z,44.80
2018-05-01T08:15:51.881Z,44.30
2018-05-01T08:18:18.956Z,44.40
2018-05-01T08:20:46.025Z,44.10
2018-05-01T08:23:13.867Z,44.30
2018-05-01T08:25:40.921Z,44.20
2018-05-01T08:28:07.997Z,44.40
2018-05-01T08:30:35.151Z,44.20
2018-05-01T08:33:02.232Z,44.00
2018-05-01T08:35:29.292Z,43.30
2018-05-01T08:37:56.377Z,43.20
2018-05-01T08:40:24.200Z,42.50
2018-05-01T08:42:51.319Z,42.50
2018-05-01T08:45:18.401Z,42.90
2018-05-01T08:47:45.488Z,42.00
2018-05-01T08:50:12.546Z,40.80
2018-05-01T08:52:39.617Z,40.50
2018-05-01T08:55:06.669Z,41.20
2018-05-01T08:57:33.755Z,41.00
2018-05-01T09:00:01.581Z,38.80
2018-05-01T09:02:28.633Z,38.80
2018-05-01T09:04:56.472Z,40.00
2018-05-01T09:07:23.540Z,40.00
2018-05-01T09:09:51.390Z,39.50
2018-05-01T09:12:18.445Z,39.80
2018-05-01T09:14:45.521Z,40.20
2018-05-01T09:17:12.576Z,40.40
2018-05-01T09:19:39.652Z,38.60
2018-05-01T09:22:06.704Z,38.80
2018-05-01T09:24:33.785Z,39.60
2018-05-01T09:27:00.854Z,40.20
2018-05-01T09:29:27.942Z,39.70
2018-05-01T09:31:54.996Z,39.30
2018-05-01T09:34:22.077Z,39.50
2018-05-01T09:36:49.132Z,40.00
2018-05-01T09:39:16.290Z,40.00
2018-05-01T09:41:43.284Z,40.30
2018-05-01T09:44:10.366Z,40.40
2018-05-01T09:46:37.454Z,40.10
2018-05-01T09:49:05.297Z,40.60
2018-05-01T09:51:32.413Z,40.40
2018-05-01T09:53:59.988Z,40.10
2018-05-01T09:56:27.542Z,40.60
2018-05-01T09:58:55.109Z,40.70
2018-05-01T10:01:22.649Z,40.60
2018-05-01T10:03:50.218Z,40.60
2018-05-01T10:06:17.766Z,40.40
2018-05-01T10:08:45.384Z,40.70
2018-05-01T10:11:13.696Z,41.20
2018-05-01T10:13:42.189Z,41.20
2018-05-01T10:16:09.728Z,41.00
2018-05-01T10:18:38.632Z,41.00
2018-05-01T10:21:06.177Z,41.00
2018-05-01T10:23:33.741Z,41.50
2018-05-01T10:26:01.558Z,41.20
2018-05-01T10:28:29.184Z,41.10
2018-05-01T10:30:56.751Z,41.70
2018-05-01T10:33:24.504Z,41.30
2018-05-01T10:35:52.092Z,41.20
2018-05-01T10:38:19.632Z,41.00
2018-05-01T10:40:47.209Z,40.80
2018-05-01T10:43:14.765Z,40.60
2018-05-01T10:45:42.365Z,40.40
2018-05-01T10:48:10.668Z,39.90
2018-05-01T10:50:38.235Z,39.80
2018-05-01T10:53:06.553Z,39.80
2018-05-01T10:55:34.708Z,39.70
2018-05-01T10:58:02.256Z,38.50
2018-05-01T11:00:29.849Z,39.30
2018-05-01T11:02:57.793Z,39.30
2018-05-01T11:05:25.465Z,38.20
2018-05-01T11:07:54.751Z,38.50
2018-05-01T11:10:22.497Z,38.90
2018-05-01T11:12:50.144Z,39.30
2018-05-01T11:15:17.720Z,39.90
2018-05-01T11:17:45.267Z,39.20
2018-05-01T11:20:12.832Z,38.00
2018-05-01T11:22:40.380Z,38.20
2018-05-01T11:25:07.945Z,38.10
2018-05-01T11:27:35.490Z,38.60
2018-05-01T11:30:03.065Z,38.30
2018-05-01T11:32:30.605Z,38.20
2018-05-01T11:34:58.186Z,38.10
2018-05-01T11:37:25.736Z,38.10
2018-05-01T11:39:53.303Z,37.50
2018-05-01T11:42:20.846Z,38.10
2018-05-01T11:44:48.414Z,37.60
2018-05-01T11:47:15.958Z,38.40
2018-05-01T11:49:43.529Z,38.00
2018-05-01T11:52:11.068Z,38.40
2018-05-01T11:54:38.634Z,38.80
2018-05-01T11:57:06.180Z,38.60
2018-05-01T11:59:33.766Z,38.50
2018-05-01T12:02:01.317Z,38.00
2018-05-01T12:04:28.913Z,38.00
2018-05-01T12:06:56.452Z,38.00
2018-05-01T12:09:24.001Z,37.60
2018-05-01T12:11:51.565Z,37.30
2018-05-01T12:14:19.116Z,38.20
2018-05-01T12:16:46.709Z,38.40
2018-05-01T12:19:14.251Z,38.20
2018-05-01T12:21:41.828Z,37.70
2018-05-01T12:24:09.395Z,37.00
2018-05-01T12:26:36.964Z,36.50
2018-05-01T12:29:04.504Z,37.90
2018-05-01T12:31:32.073Z,36.30
2018-05-01T12:33:59.622Z,37.10
2018-05-01T12:36:27.260Z,36.60
2018-05-01T12:38:54.744Z,36.70
2018-05-01T12:41:23.097Z,35.90
2018-05-01T12:43:50.637Z,35.80
2018-05-01T12:46:18.208Z,36.10
2018-05-01T12:48:46.522Z,35.20
2018-05-01T12:51:14.089Z,35.00
2018-05-01T12:53:41.639Z,35.70
2018-05-01T12:56:09.973Z,36.60
2018-05-01T12:58:37.672Z,36.60
2018-05-01T13:01:05.243Z,35.90
2018-05-01T13:03:33.572Z,36.30
2018-05-01T13:06:01.179Z,36.30
2018-05-01T13:08:31.236Z,35.10
2018-05-01T13:10:59.629Z,35.10
2018-05-01T13:13:27.172Z,36.10
2018-05-01T13:15:54.737Z,35.40
2018-05-01T13:18:22.289Z,36.00
2018-05-01T13:20:49.862Z,35.70
2018-05-01T13:23:17.410Z,34.70
2018-05-01T13:25:44.973Z,34.90
2018-05-01T13:28:12.520Z,35.80
2018-05-01T13:30:40.089Z,35.80
2018-05-01T13:33:07.642Z,35.90
2018-05-01T13:35:35.205Z,36.10
2018-05-01T13:38:02.745Z,35.80
2018-05-01T13:40:30.421Z,35.80
2018-05-01T13:42:57.956Z,35.80
2018-05-01T13:45:25.501Z,35.40
2018-05-01T13:47:53.069Z,35.50
2018-05-01T13:50:21.388Z,35.70
2018-05-01T13:52:48.956Z,35.60
2018-05-01T13:55:16.589Z,35.50
2018-05-01T13:57:44.096Z,36.20
2018-05-01T14:00:11.640Z,36.40
2018-05-01T14:02:39.213Z,35.80
2018-05-01T14:05:06.753Z,34.80
2018-05-01T14:07:34.325Z,34.50
2018-05-01T14:10:01.868Z,35.40
2018-05-01T14:12:29.440Z,35.30
2018-05-01T14:14:56.984Z,35.40
2018-05-01T14:17:24.613Z,35.20
2018-05-01T14:19:52.155Z,35.80
2018-05-01T14:22:19.725Z,34.90
2018-05-01T14:24:47.268Z,35.30
2018-05-01T14:27:14.845Z,35.70
2018-05-01T14:29:42.388Z,34.50
2018-05-01T14:32:10.761Z,35.20
2018-05-01T14:34:39.069Z,35.40
2018-05-01T14:37:06.640Z,35.40
2018-05-01T14:39:34.710Z,35.50
2018-05-01T14:42:02.365Z,35.40
2018-05-01T14:44:29.836Z,35.50
2018-05-01T14:46:57.404Z,34.00
2018-05-01T14:49:24.958Z,33.50
2018-05-01T14:51:52.532Z,34.80
2018-05-01T14:54:20.073Z,34.40
2018-05-01T14:56:48.384Z,35.90
2018-05-01T14:59:16.769Z,34.90
2018-05-01T15:01:44.366Z,34.80
2018-05-01T15:04:11.901Z,34.60
2018-05-01T15:06:39.562Z,34.70
2018-05-01T15:09:07.132Z,35.20
2018-05-01T15:11:34.682Z,34.90
2018-05-01T15:14:02.302Z,34.50
2018-05-01T15:16:29.844Z,33.40
2018-05-01T15:18:57.410Z,34.50
2018-05-01T15:21:24.980Z,34.70
2018-05-01T15:23:52.553Z,33.80
2018-05-01T15:26:20.100Z,35.10
2018-05-01T15:28:47.665Z,33.60
2018-05-01T15:31:15.219Z,35.00
2018-05-01T15:33:43.557Z,34.10
2018-05-01T15:36:11.097Z,34.10
2018-05-01T15:38:38.678Z,34.00
2018-05-01T15:41:06.229Z,34.30
2018-05-01T15:43:33.794Z,33.20
2018-05-01T15:46:01.443Z,35.00
2018-05-01T15:48:29.049Z,34.20
2018-05-01T15:50:56.591Z,34.30
2018-05-01T15:53:24.168Z,35.00
2018-05-01T15:55:51.712Z,35.20
2018-05-01T15:58:19.764Z,35.00
2018-05-01T16:00:48.110Z,34.30
2018-05-01T16:03:15.665Z,34.20
2018-05-01T16:05:43.204Z,35.00
2018-05-01T16:08:11.544Z,34.30
2018-05-01T16:10:39.622Z,34.20
2018-05-01T16:13:07.993Z,35.20
2018-05-01T16:15:35.541Z,35.10
2018-05-01T16:18:03.104Z,35.20
2018-05-01T16:20:31.411Z,35.00
2018-05-01T16:22:58.976Z,34.90
2018-05-01T16:25:27.291Z,34.40
2018-05-01T16:27:54.857Z,34.40
2018-05-01T16:30:22.436Z,35.50
2018-05-01T16:32:50.029Z,34.80
2018-05-01T16:35:17.600Z,34.40
2018-05-01T16:37:45.913Z,34.50
2018-05-01T16:40:13.484Z,34.50
2018-05-01T16:42:41.036Z,34.70
2018-05-01T16:45:08.611Z,34.60
2018-05-01T16:47:36.157Z,34.30
2018-05-01T16:50:03.729Z,35.00
2018-05-01T16:52:31.280Z,35.00
2018-05-01T16:54:58.983Z,34.50
2018-05-01T16:57:26.529Z,34.60
2018-05-01T16:59:54.092Z,34.20
2018-05-01T17:02:21.633Z,35.10
2018-05-01T17:04:49.200Z,34.60
2018-05-01T17:07:16.744Z,34.70
2018-05-01T17:09:44.352Z,35.00
2018-05-01T17:12:11.900Z,34.90
2018-05-01T17:14:40.261Z,35.10
2018-05-01T17:17:07.815Z,35.10
2018-05-01T17:19:35.382Z,35.40
2018-05-01T17:22:02.941Z,35.10
2018-05-01T17:24:30.514Z,35.70
2018-05-01T17:26:58.057Z,35.80
2018-05-01T17:29:25.634Z,36.10
2018-05-01T17:31:53.184Z,36.60
2018-05-01T17:34:20.752Z,36.80
2018-05-01T17:36:48.293Z,36.60
2018-05-01T17:39:15.865Z,37.10
2018-05-01T17:41:44.183Z,36.90
2018-05-01T17:44:11.753Z,36.90
2018-05-01T17:46:40.063Z,37.30
2018-05-01T17:49:07.641Z,37.30
2018-05-01T17:51:35.187Z,37.00
2018-05-01T17:54:03.516Z,37.70
2018-05-01T17:56:31.063Z,37.70
2018-05-01T17:58:58.628Z,38.00
2018-05-01T18:01:26.170Z,38.10
2018-05-01T18:03:53.900Z,38.50
2018-05-01T18:06:21.455Z,38.20
2018-05-01T18:08:49.793Z,38.40
2018-05-01T18:11:17.342Z,38.20
2018-05-01T18:13:44.912Z,37.90
2018-05-01T18:16:12.456Z,38.10
2018-05-01T18:18:40.020Z,37.80
2018-05-01T18:21:07.571Z,38.10
2018-05-01T18:23:35.148Z,38.80
2018-05-01T18:26:02.701Z,38.50
2018-05-01T18:28:30.280Z,39.50
2018-05-01T18:30:57.825Z,38.70
2018-05-01T18:33:25.369Z,39.00
2018-05-01T18:35:52.936Z,39.90
2018-05-01T18:38:20.472Z,41.00
2018-05-01T18:40:48.037Z,40.60
2018-05-01T18:43:15.580Z,40.10
2018-05-01T18:45:43.144Z,41.30
2018-05-01T18:48:10.688Z,40.00
2018-05-01T18:50:40.393Z,42.40
2018-05-01T18:53:05.816Z,42.40
2018-05-01T18:55:33.386Z,42.10
2018-05-01T18:58:00.935Z,45.10
2018-05-01T19:00:28.506Z,45.00
2018-05-01T19:02:56.062Z,45.20
2018-05-01T19:05:23.630Z,46.10
2018-05-01T19:07:51.174Z,45.50
2018-05-01T19:10:18.749Z,46.00
2018-05-01T19:12:46.297Z,45.60
2018-05-01T19:15:14.141Z,43.40
2018-05-01T19:17:41.680Z,44.30
2018-05-01T19:20:09.245Z,46.40
2018-05-01T19:22:36.791Z,45.60
2018-05-01T19:25:05.132Z,44.60
2018-05-01T19:27:32.677Z,44.60
2018-05-01T19:30:00.243Z,45.20
2018-05-01T19:32:28.557Z,45.70
2018-05-01T19:34:56.134Z,45.70
2018-05-01T19:37:23.677Z,46.10
2018-05-01T19:39:51.220Z,46.10
2018-05-01T19:42:18.788Z,45.70
2018-05-01T19:44:46.332Z,46.50
2018-05-01T19:47:13.905Z,45.00
2018-05-01T19:49:41.449Z,46.70
2018-05-01T19:52:09.056Z,45.50
2018-05-01T19:54:36.605Z,45.60
2018-05-01T19:57:04.940Z,46.90
2018-05-01T19:59:32.509Z,46.90
2018-05-01T20:02:00.115Z,47.40
2018-05-01T20:04:27.668Z,46.70
2018-05-01T20:06:55.995Z,48.50
2018-05-01T20:09:23.537Z,48.40
2018-05-01T20:11:51.108Z,48.10
2018-05-01T20:14:18.674Z,47.40
2018-05-01T20:16:46.250Z,48.50
2018-05-01T20:19:13.857Z,46.90
2018-05-01T20:21:41.429Z,48.20
2018-05-01T20:24:08.972Z,47.70
2018-05-01T20:26:36.532Z,48.70
2018-05-01T20:29:04.073Z,47.80
2018-05-01T20:31:32.410Z,48.50
2018-05-01T20:33:59.952Z,48.50
2018-05-01T20:36:27.524Z,47.50
2018-05-01T20:38:55.840Z,51.00
2018-05-01T20:41:23.404Z,51.20
2018-05-01T20:43:50.945Z,48.50
2018-05-01T20:46:19.276Z,48.80
2018-05-01T20:48:46.844Z,48.80
2018-05-01T20:51:14.396Z,49.60
2018-05-01T20:53:41.963Z,48.50
2018-05-01T20:56:09.514Z,51.00
2018-05-01T20:58:37.080Z,51.60
2018-05-01T21:01:04.632Z,50.40
2018-05-01T21:03:32.200Z,49.90
2018-05-01T21:05:59.741Z,49.70
2018-05-01T21:08:27.305Z,50.50
2018-05-01T21:10:54.887Z,51.50
2018-05-01T21:13:22.425Z,51.30
2018-05-01T21:15:49.969Z,51.20
2018-05-01T21:18:17.533Z,51.00
2018-05-01T21:20:45.082Z,52.10
2018-05-01T21:23:13.414Z,50.00
2018-05-01T21:25:40.975Z,49.90
2018-05-01T21:28:09.308Z,50.70
2018-05-01T21:30:37.620Z,51.20
2018-05-01T21:33:05.220Z,50.60
2018-05-01T21:35:32.761Z,51.80
2018-05-01T21:38:01.092Z,49.00
2018-05-01T21:40:28.636Z,48.90
2018-05-01T21:42:56.212Z,48.40
2018-05-01T21:45:25.266Z,50.80
2018-05-01T21:47:52.829Z,50.10
2018-05-01T21:50:20.364Z,51.70
2018-05-01T21:52:48.696Z,51.60
2018-05-01T21:55:16.232Z,51.60
2018-05-01T21:57:43.790Z,50.50
2018-05-01T22:00:11.348Z,52.90
2018-05-01T22:02:38.908Z,51.00
2018-05-01T22:05:06.446Z,51.80
2018-05-01T22:07:34.010Z,52.60
2018-05-01T22:10:01.638Z,52.40
2018-05-01T22:12:29.140Z,52.30
2018-05-01T22:14:56.680Z,49.40
2018-05-01T22:17:24.237Z,50.80
2018-05-01T22:19:51.776Z,51.40
2018-05-01T22:22:20.105Z,50.00
2018-05-01T22:24:47.650Z,49.90
2018-05-01T22:27:15.224Z,52.60
2018-05-01T22:29:42.767Z,50.20
2018-05-01T22:32:10.334Z,51.50
2018-05-01T22:34:37.873Z,52.00
2018-05-01T22:37:05.438Z,53.90
2018-05-01T22:39:32.976Z,51.60
2018-05-01T22:42:01.288Z,53.10
2018-05-01T22:44:28.848Z,53.00
2018-05-01T22:46:56.704Z,51.90
2018-05-01T22:49:24.274Z,52.80
2018-05-01T22:51:51.817Z,51.40
2018-05-01T22:54:19.380Z,54.60
2018-05-01T22:56:46.924Z,53.00
2018-05-01T22:59:15.257Z,56.90
2018-05-01T23:01:42.816Z,56.90
2018-05-01T23:04:10.376Z,53.00
2018-05-01T23:06:37.912Z,51.40
2018-05-01T23:09:06.240Z,51.30
2018-05-01T23:11:34.545Z,56.70
2018-05-01T23:14:02.105Z,56.70
2018-05-01T23:16:29.648Z,53.60
2018-05-01T23:18:57.212Z,53.00
2018-05-01T23:21:24.750Z,54.80
2018-05-01T23:23:53.072Z,54.60
2018-05-01T23:26:20.616Z,54.40
2018-05-01T23:28:48.176Z,56.00
2018-05-01T23:31:15.714Z,56.10
2018-05-01T23:33:43.277Z,53.20
2018-05-01T23:36:10.825Z,57.10
2018-05-01T23:38:38.394Z,57.10
2018-05-01T23:41:05.929Z,56.00
2018-05-01T23:43:34.272Z,58.30
2018-05-01T23:46:01.810Z,58.20
2018-05-01T23:48:29.350Z,56.30
2018-05-01T23:50:56.912Z,55.40
2018-05-01T23:53:24.449Z,52.90
2018-05-01T23:55:52.012Z,52.60
2018-05-01T23:58:19.551Z,53.10
